Time;durP1;ratioP1;P1;durP2;ratioP2;P2;SDS_P1;SDS_P2;PMS_P1;PMS_P2;Temp;Humidity;BMP_temperature;BMP_pressure;BME280_temperature;BME280_humidity;BME280_pressure;Samples;Min_cycle;Max_cycle;Signal;HPM_P1;HPM_P2
2021/10/09 00:00:09;;;;;;;14.77;9.20;;;;;17.90;102825.00;;;;5029855;28;20200;-77
2021/10/09 00:02:37;;;;;;;12.45;9.45;;;;;17.90;102824.00;;;;5040606;28;20195;-78
2021/10/09 00:05:06;;;;;;;11.82;9.70;;;;;17.90;102823.00;;;;5069472;28;20260;-78
2021/10/09 00:07:34;;;;;;;12.75;9.77;;;;;17.90;102822.00;;;;5055104;28;20191;-77
2021/10/09 00:10:03;;;;;;;10.68;9.23;;;;;17.90;102817.00;;;;5049266;28;20277;-77
2021/10/09 00:12:31;;;;;;;12.00;9.63;;;;;17.90;102825.00;;;;5055124;28;20211;-78
2021/10/09 00:14:59;;;;;;;13.10;9.27;;;;;17.90;102817.00;;;;5061373;28;20203;-78
2021/10/09 00:17:28;;;;;;;12.15;9.15;;;;;17.90;102820.00;;;;5052047;28;20204;-78
2021/10/09 00:19:56;;;;;;;10.82;8.75;;;;;17.90;102820.00;;;;5028882;28;20196;-77
2021/10/09 00:22:25;;;;;;;12.65;9.25;;;;;17.80;102824.00;;;;5029759;28;20200;-77
2021/10/09 00:24:52;;;;;;;16.33;9.95;;;;;17.80;102815.00;;;;5029423;28;20207;-78
2021/10/09 00:27:19;;;;;;;10.55;8.52;;;;;17.80;102818.00;;;;5029540;28;20196;-77
2021/10/09 00:29:47;;;;;;;11.50;8.80;;;;;17.80;102819.00;;;;5028972;28;20319;-78
2021/10/09 00:32:14;;;;;;;11.27;9.07;;;;;17.80;102816.00;;;;5045473;28;20657;-77
2021/10/09 00:34:41;;;;;;;10.73;9.57;;;;;17.80;102815.00;;;;5049159;28;20218;-77
2021/10/09 00:37:08;;;;;;;16.40;9.93;;;;;17.80;102811.00;;;;5053712;28;20196;-77
2021/10/09 00:39:37;;;;;;;9.77;8.68;;;;;17.70;102807.00;;;;5056891;28;20227;-78
2021/10/09 00:42:05;;;;;;;10.60;9.07;;;;;17.70;102809.00;;;;5048441;28;20522;-78
2021/10/09 00:44:33;;;;;;;11.55;9.60;;;;;17.70;102808.00;;;;5049044;28;20294;-78
2021/10/09 00:47:03;;;;;;;12.18;9.65;;;;;17.70;102810.00;;;;5048961;28;20211;-78
2021/10/09 00:49:31;;;;;;;12.45;9.27;;;;;17.70;102810.00;;;;5029214;28;20654;-78
2021/10/09 00:52:02;;;;;;;13.40;10.35;;;;;17.70;102812.00;;;;5044379;28;20202;-78
2021/10/09 00:54:30;;;;;;;12.43;9.20;;;;;17.70;102816.00;;;;5068693;28;20199;-77
2021/10/09 00:57:01;;;;;;;12.55;9.65;;;;;17.60;102813.00;;;;5069103;28;20202;-77
2021/10/09 00:59:29;;;;;;;11.95;9.18;;;;;17.60;102812.00;;;;5068791;28;20206;-77
2021/10/09 01:01:58;;;;;;;10.02;8.48;;;;;17.60;102812.00;;;;5068300;28;20598;-78
2021/10/09 01:04:25;;;;;;;12.00;10.20;;;;;17.60;102806.00;;;;5064224;28;20198;-78
2021/10/09 01:06:53;;;;;;;11.07;9.02;;;;;17.60;102812.00;;;;5045570;28;20203;-78
2021/10/09 01:09:20;;;;;;;12.15;9.40;;;;;17.50;102807.00;;;;5067678;28;20222;-78
2021/10/09 01:11:47;;;;;;;12.40;9.80;;;;;17.50;102814.00;;;;5062575;28;20200;-77
2021/10/09 01:14:16;;;;;;;11.73;9.07;;;;;17.50;102804.00;;;;5028903;28;20198;-77
2021/10/09 01:16:43;;;;;;;12.15;9.77;;;;;17.50;102800.00;;;;5031541;28;20195;-78
2021/10/09 01:19:10;;;;;;;13.70;10.20;;;;;17.50;102793.00;;;;5038085;28;20203;-78
2021/10/09 01:21:44;;;;;;;11.95;9.38;;;;;17.40;102805.00;;;;5045340;28;20208;-77
2021/10/09 01:24:12;;;;;;;11.23;9.15;;;;;17.40;102800.00;;;;5040876;28;20206;-78
2021/10/09 01:26:40;;;;;;;10.95;9.35;;;;;17.40;102799.00;;;;5049896;28;20196;-77
2021/10/09 01:29:09;;;;;;;11.57;9.18;;;;;17.40;102798.00;;;;5067976;28;20222;-77
2021/10/09 01:31:37;;;;;;;13.32;8.63;;;;;17.30;102801.00;;;;5067133;28;20195;-77
2021/10/09 01:34:05;;;;;;;12.45;9.00;;;;;17.30;102790.00;;;;5057017;28;20751;-77
2021/10/09 01:36:33;;;;;;;13.35;8.80;;;;;17.30;102795.00;;;;5051819;28;20206;-77
2021/10/09 01:39:03;;;;;;;12.50;9.77;;;;;17.30;102792.00;;;;5052439;28;20239;-77
2021/10/09 01:41:30;;;;;;;13.50;10.32;;;;;17.30;102794.00;;;;5043387;28;20211;-77
2021/10/09 01:43:57;;;;;;;13.15;10.45;;;;;17.20;102785.00;;;;5040137;28;20670;-77
2021/10/09 01:46:25;;;;;;;12.60;9.98;;;;;17.20;102780.00;;;;5038261;28;20199;-77
2021/10/09 01:48:52;;;;;;;12.20;9.43;;;;;17.20;102793.00;;;;5047566;28;20199;-77
2021/10/09 01:51:19;;;;;;;11.00;9.13;;;;;17.20;102785.00;;;;5048686;28;20215;-78
2021/10/09 01:53:46;;;;;;;12.05;9.57;;;;;17.20;102779.00;;;;5048309;28;20700;-78
2021/10/09 01:56:15;;;;;;;13.63;9.98;;;;;17.20;102785.00;;;;5039490;28;20201;-78
2021/10/09 01:58:42;;;;;;;11.77;9.27;;;;;17.20;102777.00;;;;5028394;28;20250;-78
2021/10/09 02:01:10;;;;;;;12.05;9.73;;;;;17.10;102779.00;;;;5028387;28;20678;-78
2021/10/09 02:03:37;;;;;;;14.52;10.65;;;;;17.10;102776.00;;;;5041663;28;20203;-78
2021/10/09 02:06:04;;;;;;;14.40;10.43;;;;;17.10;102775.00;;;;5054117;28;20207;-77
2021/10/09 02:08:32;;;;;;;12.13;10.15;;;;;17.10;102776.00;;;;5048215;28;20192;-77
2021/10/09 02:11:01;;;;;;;13.10;9.88;;;;;17.10;102775.00;;;;5047013;28;20227;-77
2021/10/09 02:13:35;;;;;;;11.75;9.35;;;;;17.10;102767.00;;;;5037601;28;20258;-77
2021/10/09 02:16:08;;;;;;;12.73;10.20;;;;;17.10;102770.00;;;;5042956;28;20218;-78
2021/10/09 02:18:43;;;;;;;12.23;9.48;;;;;17.00;102768.00;;;;5045520;28;20204;-77
2021/10/09 02:24:24;;;;;;;12.32;9.75;;;;;17.00;102769.00;;;;5041742;28;20203;-78
2021/10/09 02:26:51;;;;;;;12.98;9.75;;;;;17.00;102764.00;;;;5051513;28;20188;-78
2021/10/09 02:29:20;;;;;;;13.77;10.13;;;;;16.90;102772.00;;;;5050729;28;20219;-78
2021/10/09 02:31:48;;;;;;;12.80;9.45;;;;;17.00;102768.00;;;;5044893;28;20219;-78
2021/10/09 02:34:15;;;;;;;14.82;10.55;;;;;16.90;102768.00;;;;5057386;28;20202;-78
2021/10/09 02:36:42;;;;;;;14.07;10.05;;;;;16.90;102769.00;;;;5048484;28;20669;-78
2021/10/09 02:39:10;;;;;;;12.73;10.52;;;;;16.90;102766.00;;;;5051474;28;20227;-78
2021/10/09 02:41:37;;;;;;;14.70;10.90;;;;;16.90;102758.00;;;;5050981;28;20203;-78
2021/10/09 02:44:05;;;;;;;13.38;9.23;;;;;16.80;102761.00;;;;5067556;28;20199;-77
2021/10/09 02:46:34;;;;;;;14.23;10.13;;;;;16.80;102769.00;;;;5059774;28;20201;-77
2021/10/09 02:49:01;;;;;;;13.50;10.55;;;;;16.80;102765.00;;;;5050711;28;20215;-77
2021/10/09 02:51:29;;;;;;;11.75;9.30;;;;;16.80;102764.00;;;;5050446;28;20768;-78
2021/10/09 02:53:56;;;;;;;12.90;9.85;;;;;16.80;102759.00;;;;5051448;28;20192;-78
2021/10/09 02:56:23;;;;;;;13.63;10.25;;;;;16.80;102764.00;;;;5060644;28;20195;-77
2021/10/09 02:58:50;;;;;;;14.48;10.50;;;;;16.80;102760.00;;;;5055782;28;20198;-78
2021/10/09 03:01:17;;;;;;;14.25;10.93;;;;;16.80;102762.00;;;;5051182;28;20206;-78
2021/10/09 03:03:46;;;;;;;14.30;11.00;;;;;16.70;102763.00;;;;5045898;28;20204;-78
2021/10/09 03:06:13;;;;;;;15.98;10.43;;;;;16.70;102765.00;;;;5033985;28;20677;-78
2021/10/09 03:08:40;;;;;;;12.68;10.32;;;;;16.70;102763.00;;;;5051413;28;20684;-78
2021/10/09 03:11:08;;;;;;;12.48;9.80;;;;;16.70;102761.00;;;;5050447;28;20231;-78
2021/10/09 03:13:35;;;;;;;13.52;10.00;;;;;16.70;102763.00;;;;5050195;28;20195;-78
2021/10/09 03:16:02;;;;;;;12.00;9.68;;;;;16.70;102767.00;;;;5070226;28;20195;-78
2021/10/09 03:18:29;;;;;;;12.38;9.48;;;;;16.70;102767.00;;;;5050356;28;20192;-78
2021/10/09 03:20:58;;;;;;;13.13;9.70;;;;;16.70;102767.00;;;;5044459;28;20216;-78
2021/10/09 03:23:25;;;;;;;14.07;11.05;;;;;16.70;102760.00;;;;5042739;28;20420;-78
2021/10/09 03:25:52;;;;;;;12.43;9.43;;;;;16.70;102759.00;;;;5049160;28;20222;-78
2021/10/09 03:28:20;;;;;;;10.65;9.02;;;;;16.70;102763.00;;;;5051187;28;20195;-78
2021/10/09 03:30:47;;;;;;;11.80;9.43;;;;;16.70;102754.00;;;;5050361;28;20223;-78
2021/10/09 03:33:14;;;;;;;12.73;10.00;;;;;16.70;102756.00;;;;5050444;28;20199;-78
2021/10/09 03:35:42;;;;;;;13.95;10.02;;;;;16.70;102759.00;;;;5056295;28;20204;-78
2021/10/09 03:38:10;;;;;;;14.48;10.57;;;;;16.70;102756.00;;;;5039990;28;20270;-77
2021/10/09 03:40:39;;;;;;;14.77;11.15;;;;;16.70;102765.00;;;;5036813;28;20196;-78
2021/10/09 03:43:09;;;;;;;13.13;10.10;;;;;16.70;102760.00;;;;5050664;28;20200;-77
2021/10/09 03:45:40;;;;;;;14.77;10.68;;;;;16.70;102763.00;;;;5065167;28;20625;-77
2021/10/09 03:48:25;;;;;;;13.20;9.75;;;;;16.60;102765.00;;;;5069736;28;20553;-78
2021/10/09 03:53:53;;;;;;;12.05;9.40;;;;;16.60;102765.00;;;;5008120;28;20255;-77
2021/10/09 03:56:20;;;;;;;12.85;9.32;;;;;16.60;102765.00;;;;4989373;28;20894;-78
2021/10/09 03:58:47;;;;;;;13.82;10.00;;;;;16.60;102764.00;;;;5006682;28;20200;-77
2021/10/09 04:01:14;;;;;;;11.98;9.55;;;;;16.60;102764.00;;;;5047590;28;20681;-78
2021/10/09 04:03:41;;;;;;;13.10;9.80;;;;;16.60;102760.00;;;;5050092;28;20202;-77
2021/10/09 04:06:09;;;;;;;12.15;9.05;;;;;16.60;102761.00;;;;5061344;28;20192;-77
2021/10/09 04:08:36;;;;;;;11.02;9.10;;;;;16.60;102762.00;;;;5053903;28;20584;-78
2021/10/09 04:11:05;;;;;;;10.85;8.48;;;;;16.50;102764.00;;;;5049975;28;20242;-78
2021/10/09 04:13:32;;;;;;;12.00;9.15;;;;;16.60;102769.00;;;;5047703;28;20266;-78
2021/10/09 04:15:59;;;;;;;12.43;9.70;;;;;16.50;102761.00;;;;5049919;28;20222;-78
2021/10/09 04:18:26;;;;;;;11.82;8.77;;;;;16.50;102764.00;;;;5048136;28;20200;-78
2021/10/09 04:20:54;;;;;;;11.43;8.80;;;;;16.50;102765.00;;;;5050030;28;20211;-78
2021/10/09 04:23:21;;;;;;;12.15;8.95;;;;;16.50;102769.00;;;;5059504;28;20219;-78
2021/10/09 04:25:48;;;;;;;12.65;9.05;;;;;16.50;102765.00;;;;5051550;28;20199;-78
2021/10/09 04:28:17;;;;;;;12.77;9.60;;;;;16.40;102758.00;;;;5053502;28;20207;-78
2021/10/09 04:30:44;;;;;;;12.55;8.88;;;;;16.50;102759.00;;;;5042721;28;20696;-78
2021/10/09 04:33:11;;;;;;;11.82;9.45;;;;;16.50;102759.00;;;;5050164;28;20204;-77
2021/10/09 04:35:38;;;;;;;13.50;9.20;;;;;16.40;102761.00;;;;5067246;28;20206;-78
2021/10/09 04:38:10;;;;;;;11.93;8.90;;;;;16.40;102760.00;;;;5051582;28;20625;-78
2021/10/09 04:40:38;;;;;;;10.70;8.30;;;;;16.40;102763.00;;;;5048625;28;20209;-78
2021/10/09 04:43:05;;;;;;;13.60;9.52;;;;;16.40;102761.00;;;;5036660;28;20295;-78
2021/10/09 04:45:34;;;;;;;15.13;10.57;;;;;16.40;102753.00;;;;5034308;28;20203;-78
2021/10/09 04:48:04;;;;;;;13.20;10.20;;;;;16.30;102757.00;;;;5047908;28;20211;-78
2021/10/09 04:50:31;;;;;;;11.73;9.20;;;;;16.40;102749.00;;;;5048922;28;20227;-78
2021/10/09 04:52:59;;;;;;;15.93;10.30;;;;;16.30;102750.00;;;;5048855;28;20590;-78
2021/10/09 04:55:26;;;;;;;14.40;10.35;;;;;16.30;102753.00;;;;5048971;28;20685;-78
2021/10/09 04:57:55;;;;;;;13.20;10.07;;;;;16.30;102746.00;;;;5048714;28;20188;-78
2021/10/09 05:00:22;;;;;;;11.25;9.43;;;;;16.30;102752.00;;;;5040751;28;20323;-78
2021/10/09 05:02:51;;;;;;;15.10;9.52;;;;;16.30;102754.00;;;;5035174;28;20204;-76
2021/10/09 05:05:19;;;;;;;12.20;9.75;;;;;16.30;102756.00;;;;5032483;28;20202;-77
2021/10/09 05:07:46;;;;;;;12.70;9.60;;;;;16.30;102752.00;;;;5044029;28;20200;-78
2021/10/09 05:10:13;;;;;;;14.60;10.25;;;;;16.30;102758.00;;;;5047834;28;20224;-77
2021/10/09 05:12:41;;;;;;;12.45;9.25;;;;;16.20;102756.00;;;;5046196;28;20211;-78
2021/10/09 05:15:09;;;;;;;14.88;10.57;;;;;16.20;102762.00;;;;5046890;28;20214;-78
2021/10/09 05:17:36;;;;;;;13.82;9.20;;;;;16.20;102761.00;;;;5046251;28;20325;-78
2021/10/09 05:20:05;;;;;;;13.38;9.77;;;;;16.20;102761.00;;;;5045382;28;20246;-78
2021/10/09 05:22:33;;;;;;;14.82;9.80;;;;;16.20;102763.00;;;;5046318;28;20202;-77
2021/10/09 05:25:00;;;;;;;12.57;9.88;;;;;16.20;102760.00;;;;5047258;28;20210;-78
2021/10/09 05:27:28;;;;;;;14.88;10.27;;;;;16.20;102762.00;;;;5047467;28;20207;-77
2021/10/09 05:29:55;;;;;;;12.55;9.70;;;;;16.20;102758.00;;;;5046645;28;20208;-76
2021/10/09 05:32:24;;;;;;;15.00;10.23;;;;;16.20;102762.00;;;;5046919;28;20717;-77
2021/10/09 05:34:51;;;;;;;16.58;10.93;;;;;16.10;102770.00;;;;5047353;28;20495;-77
2021/10/09 05:37:20;;;;;;;16.45;9.95;;;;;16.10;102767.00;;;;5044384;28;20203;-76
2021/10/09 05:39:47;;;;;;;12.82;9.82;;;;;16.10;102771.00;;;;5045788;28;20227;-78
2021/10/09 05:42:14;;;;;;;13.70;9.80;;;;;16.10;102776.00;;;;5047425;28;20215;-78
2021/10/09 05:44:42;;;;;;;14.85;10.93;;;;;16.10;102779.00;;;;5047669;28;20210;-78
2021/10/09 05:47:09;;;;;;;13.32;9.50;;;;;16.00;102776.00;;;;5046709;28;20582;-77
2021/10/09 05:49:38;;;;;;;15.65;9.63;;;;;16.00;102773.00;;;;5048504;28;20191;-78
2021/10/09 05:52:09;;;;;;;14.77;10.18;;;;;16.00;102777.00;;;;5054225;28;20760;-78
2021/10/09 05:54:42;;;;;;;13.35;9.43;;;;;16.00;102776.00;;;;5045640;28;20744;-78
2021/10/09 05:57:12;;;;;;;13.95;10.15;;;;;16.00;102782.00;;;;5048491;28;20286;-77
2021/10/09 06:44:16;;;;;;;13.63;9.35;;;;;15.80;102792.00;;;;5038705;28;20219;-77
2021/10/09 06:49:41;;;;;;;11.65;9.10;;;;;15.90;102797.00;;;;5039660;28;20372;-76
2021/10/09 07:00:48;;;;;;;13.10;9.65;;;;;16.00;102813.00;;;;4995839;28;20258;-76
2021/10/09 07:03:18;;;;;;;12.95;10.25;;;;;16.00;102800.00;;;;5035066;28;20204;-76
2021/10/09 07:05:46;;;;;;;14.73;10.07;;;;;16.00;102809.00;;;;5050577;28;20203;-76
2021/10/09 07:08:13;;;;;;;15.75;10.52;;;;;16.00;102812.00;;;;5034273;28;20258;-76
2021/10/09 07:10:46;;;;;;;14.35;10.18;;;;;16.00;102812.00;;;;5037929;28;20219;-76
2021/10/09 07:13:14;;;;;;;12.18;9.60;;;;;16.10;102820.00;;;;5031107;28;20222;-77
2021/10/09 07:15:41;;;;;;;13.10;9.70;;;;;16.10;102812.00;;;;5031394;28;20208;-77
2021/10/09 07:18:11;;;;;;;13.82;9.77;;;;;16.10;102818.00;;;;5036979;28;20685;-78
2021/10/09 07:20:39;;;;;;;13.35;9.95;;;;;16.10;102821.00;;;;5039247;28;20631;-77
2021/10/09 07:23:08;;;;;;;13.20;9.48;;;;;16.10;102825.00;;;;5041035;28;20196;-78
2021/10/09 07:25:35;;;;;;;13.23;9.88;;;;;16.10;102840.00;;;;5049798;28;20286;-77
2021/10/09 07:28:03;;;;;;;14.07;10.40;;;;;16.10;102829.00;;;;5049357;28;20203;-77
2021/10/09 07:30:31;;;;;;;13.73;9.85;;;;;16.20;102837.00;;;;5049652;28;20665;-77
2021/10/09 07:32:58;;;;;;;14.02;9.27;;;;;16.20;102837.00;;;;5060071;28;20195;-77
2021/10/09 07:35:27;;;;;;;14.48;9.65;;;;;16.20;102838.00;;;;5050054;28;20204;-77
2021/10/09 07:37:54;;;;;;;13.10;9.40;;;;;16.20;102842.00;;;;5030635;28;20227;-77
2021/10/09 07:40:22;;;;;;;14.73;10.15;;;;;16.20;102844.00;;;;5040488;28;20209;-77
2021/10/09 07:42:49;;;;;;;12.82;10.23;;;;;16.30;102852.00;;;;5048389;28;20757;-77
2021/10/09 07:45:16;;;;;;;13.52;9.82;;;;;16.30;102851.00;;;;5049700;28;20200;-77
2021/10/09 07:47:43;;;;;;;12.98;10.25;;;;;16.30;102853.00;;;;5052822;28;20202;-76
2021/10/09 07:50:12;;;;;;;12.48;8.98;;;;;16.30;102847.00;;;;5039993;28;20224;-77
2021/10/09 07:52:41;;;;;;;14.85;9.77;;;;;16.30;102849.00;;;;5042068;28;20218;-77
2021/10/09 07:55:09;;;;;;;15.60;10.07;;;;;16.30;102846.00;;;;5049336;28;20222;-76
2021/10/09 07:57:36;;;;;;;13.68;10.40;;;;;16.30;102850.00;;;;5044410;28;20692;-77
2021/10/09 08:00:05;;;;;;;15.75;11.25;;;;;16.40;102855.00;;;;5049208;28;20230;-78
2021/10/09 08:02:34;;;;;;;14.32;10.43;;;;;16.40;102859.00;;;;5049525;28;20223;-78
2021/10/09 08:05:03;;;;;;;14.30;10.75;;;;;16.40;102860.00;;;;5049206;28;20203;-79
2021/10/09 08:07:30;;;;;;;13.60;9.90;;;;;16.50;102856.00;;;;5050015;28;20223;-78
2021/10/09 08:09:59;;;;;;;14.93;10.52;;;;;16.50;102852.00;;;;5043344;28;20200;-79
2021/10/09 08:12:26;;;;;;;16.13;10.63;;;;;16.50;102860.00;;;;5029243;28;20204;-78
2021/10/09 08:14:54;;;;;;;14.18;10.68;;;;;16.60;102868.00;;;;5028873;28;20620;-78
2021/10/09 08:17:21;;;;;;;16.02;11.45;;;;;16.60;102871.00;;;;5029827;28;20203;-78
2021/10/09 08:19:48;;;;;;;17.05;12.25;;;;;16.70;102866.00;;;;5033477;28;20211;-79
2021/10/09 08:22:15;;;;;;;15.27;11.05;;;;;16.70;102861.00;;;;5045597;28;20227;-78
2021/10/09 08:24:47;;;;;;;15.75;11.15;;;;;16.80;102867.00;;;;5044815;28;20196;-78
2021/10/09 08:35:36;;;;;;;17.92;12.77;;;;;17.00;102881.00;;;;5033393;28;20678;-78
2021/10/09 08:40:48;;;;;;;16.85;12.73;;;;;17.10;102871.00;;;;5056276;28;20207;-76
2021/10/09 08:43:17;;;;;;;19.45;13.63;;;;;17.20;102878.00;;;;5029294;28;20211;-77
2021/10/09 08:45:47;;;;;;;18.77;12.70;;;;;17.30;102876.00;;;;5049452;28;20207;-77
2021/10/09 08:48:16;;;;;;;19.75;13.20;;;;;17.40;102869.00;;;;5047308;28;20282;-76
2021/10/09 08:50:45;;;;;;;18.70;12.95;;;;;17.40;102873.00;;;;5029198;28;20220;-76
2021/10/09 08:53:13;;;;;;;18.40;12.90;;;;;17.50;102870.00;;;;5042054;28;20558;-76
2021/10/09 08:55:45;;;;;;;18.38;13.20;;;;;17.60;102872.00;;;;5048347;28;20286;-76
2021/10/09 08:58:33;;;;;;;24.20;15.23;;;;;17.70;102873.00;;;;5048771;28;20199;-78
2021/10/09 09:01:09;;;;;;;17.50;13.70;;;;;17.80;102872.00;;;;5037677;28;20220;-77
2021/10/09 09:04:06;;;;;;;17.90;13.68;;;;;17.90;102868.00;;;;5028362;28;20204;-78
2021/10/09 09:06:59;;;;;;;17.30;13.15;;;;;18.10;102871.00;;;;5028834;28;20250;-78
2021/10/09 09:26:19;;;;;;;15.25;12.48;;;;;18.70;102877.00;;;;5067226;28;20202;-77
2021/10/09 09:32:12;;;;;;;16.42;12.73;;;;;18.80;102872.00;;;;5029123;28;20234;-77
2021/10/09 09:35:01;;;;;;;15.43;12.07;;;;;19.00;102872.00;;;;5053512;28;20203;-78
2021/10/09 09:37:42;;;;;;;15.48;11.65;;;;;19.10;102867.00;;;;5030856;28;20196;-78
2021/10/09 09:40:12;;;;;;;18.13;12.27;;;;;19.20;102866.00;;;;5028909;28;20404;-79
2021/10/09 09:42:48;;;;;;;22.00;13.90;;;;;19.20;102870.00;;;;5051312;28;20711;-78
2021/10/09 09:45:21;;;;;;;14.68;12.18;;;;;19.30;102860.00;;;;5051829;28;20628;-78
2021/10/09 09:47:53;;;;;;;17.45;13.32;;;;;19.40;102867.00;;;;5029186;28;20211;-78
2021/10/09 09:50:20;;;;;;;19.77;12.63;;;;;19.60;102860.00;;;;5027244;28;20278;-79
2021/10/09 09:52:48;;;;;;;14.68;11.90;;;;;19.60;102860.00;;;;5052549;28;20203;-78
2021/10/09 09:55:16;;;;;;;13.38;11.55;;;;;19.70;102864.00;;;;5068137;28;20217;-78
2021/10/09 09:57:44;;;;;;;13.57;11.40;;;;;19.70;102860.00;;;;5068439;28;20354;-78
2021/10/09 10:00:13;;;;;;;16.38;11.98;;;;;19.70;102854.00;;;;5067239;28;20203;-78
2021/10/09 10:02:43;;;;;;;15.25;11.15;;;;;19.80;102854.00;;;;5068191;28;20238;-78
2021/10/09 10:05:13;;;;;;;17.50;12.50;;;;;19.80;102847.00;;;;5057372;28;20207;-79
2021/10/09 10:07:40;;;;;;;15.40;12.13;;;;;19.90;102856.00;;;;5037123;28;20223;-78
2021/10/09 10:10:09;;;;;;;22.17;11.95;;;;;20.00;102860.00;;;;5037299;28;20203;-80
2021/10/09 10:12:38;;;;;;;15.80;11.55;;;;;20.10;102849.00;;;;5033813;28;20204;-79
2021/10/09 10:15:08;;;;;;;16.15;11.65;;;;;20.20;102854.00;;;;5033062;28;20705;-77
2021/10/09 10:17:40;;;;;;;17.33;12.68;;;;;20.30;102853.00;;;;5027473;28;20254;-77
2021/10/09 10:20:09;;;;;;;18.73;12.40;;;;;20.50;102864.00;;;;5028062;28;20214;-77
2021/10/09 10:22:58;;;;;;;15.70;11.18;;;;;20.50;102859.00;;;;5048191;28;20227;-76
2021/10/09 10:25:32;;;;;;;14.35;11.32;;;;;20.60;102854.00;;;;5063023;28;20215;-77
2021/10/09 10:28:01;;;;;;;14.95;10.73;;;;;20.80;102854.00;;;;5027766;28;20232;-77
2021/10/09 10:30:30;;;;;;;18.77;11.05;;;;;20.90;102855.00;;;;5028042;28;20216;-77
2021/10/09 10:33:36;;;;;;;17.13;12.48;;;;;20.90;102857.00;;;;5027498;28;20215;-77
2021/10/09 10:36:04;;;;;;;13.20;10.57;;;;;21.10;102861.00;;;;5023156;28;20203;-77
2021/10/09 10:38:47;;;;;;;15.57;11.27;;;;;21.10;102857.00;;;;5035579;28;20231;-77
2021/10/09 10:41:19;;;;;;;11.43;9.85;;;;;21.30;102856.00;;;;5040221;28;20534;-78
2021/10/09 10:43:49;;;;;;;12.82;10.10;;;;;21.40;102851.00;;;;5041603;28;20208;-78
2021/10/09 10:46:47;;;;;;;13.98;10.90;;;;;21.40;102860.00;;;;5031519;28;20287;-77
2021/10/09 10:49:19;;;;;;;14.88;11.32;;;;;21.60;102857.00;;;;5031403;28;20236;-78
2021/10/09 10:52:09;;;;;;;16.88;12.15;;;;;21.70;102860.00;;;;5041795;28;20222;-78
2021/10/09 10:54:58;;;;;;;14.40;9.68;;;;;21.80;102855.00;;;;5059568;28;20579;-78
2021/10/09 10:57:25;;;;;;;13.45;10.27;;;;;21.90;102861.00;;;;5054488;28;20203;-76
2021/10/09 10:59:56;;;;;;;16.17;11.85;;;;;22.00;102860.00;;;;5061749;28;20322;-77
2021/10/09 11:02:26;;;;;;;18.25;11.20;;;;;22.00;102850.00;;;;5050486;28;20222;-77
2021/10/09 11:04:55;;;;;;;14.55;11.40;;;;;22.10;102856.00;;;;5051122;28;20263;-77
2021/10/09 11:07:26;;;;;;;12.82;11.23;;;;;22.10;102850.00;;;;5050517;28;20540;-77
2021/10/09 11:10:02;;;;;;;16.30;11.38;;;;;22.20;102851.00;;;;5050600;28;20199;-78
2021/10/09 11:12:31;;;;;;;12.88;9.75;;;;;22.30;102848.00;;;;5051160;28;20218;-78
2021/10/09 11:15:07;;;;;;;17.20;12.13;;;;;22.30;102854.00;;;;5050701;28;20197;-78
2021/10/09 11:17:36;;;;;;;14.88;11.48;;;;;22.40;102852.00;;;;5045657;28;20492;-77
2021/10/09 11:20:05;;;;;;;15.00;10.63;;;;;22.40;102841.00;;;;5044225;28;20200;-78
2021/10/09 11:22:40;;;;;;;12.27;10.98;;;;;22.40;102844.00;;;;5053872;28;20234;-78
2021/10/09 11:25:11;;;;;;;18.10;11.65;;;;;22.50;102848.00;;;;5035659;28;20199;-78
2021/10/09 11:27:39;;;;;;;16.67;12.27;;;;;22.50;102848.00;;;;5030825;28;20211;-78
2021/10/09 11:30:08;;;;;;;14.75;10.25;;;;;22.60;102842.00;;;;5042601;28;20203;-78
2021/10/09 11:32:37;;;;;;;13.65;10.52;;;;;22.60;102841.00;;;;5050515;28;20199;-78
2021/10/09 11:35:06;;;;;;;13.45;11.00;;;;;22.70;102838.00;;;;5035235;28;20635;-78
2021/10/09 11:37:33;;;;;;;15.07;11.63;;;;;22.70;102833.00;;;;5049590;28;20211;-78
2021/10/09 11:40:03;;;;;;;14.75;11.15;;;;;22.70;102836.00;;;;5039274;28;20232;-78
2021/10/09 11:42:34;;;;;;;13.57;10.57;;;;;22.70;102829.00;;;;5045318;28;20227;-79
2021/10/09 11:45:15;;;;;;;11.55;10.32;;;;;22.70;102830.00;;;;5049734;28;20556;-78
2021/10/09 11:53:38;;;;;;;14.02;10.75;;;;;22.90;102823.00;;;;5043512;28;20265;-77
2021/10/09 11:56:07;;;;;;;14.43;10.98;;;;;22.90;102820.00;;;;5031689;28;20239;-77
2021/10/09 11:58:47;;;;;;;13.43;9.77;;;;;22.90;102823.00;;;;5044045;28;20199;-77
2021/10/09 12:01:29;;;;;;;15.45;10.63;;;;;22.90;102827.00;;;;5046209;28;20200;-78
2021/10/09 12:03:56;;;;;;;13.77;10.23;;;;;23.10;102825.00;;;;5033215;28;20310;-78
2021/10/09 12:06:40;;;;;;;14.13;10.18;;;;;23.10;102823.00;;;;5050080;28;20204;-77
2021/10/09 12:09:09;;;;;;;14.30;10.45;;;;;23.10;102814.00;;;;5047244;28;20669;-78
2021/10/09 12:11:36;;;;;;;13.07;10.38;;;;;23.20;102829.00;;;;5050115;28;20199;-79
2021/10/09 12:14:07;;;;;;;14.70;10.82;;;;;23.20;102820.00;;;;5034034;28;20203;-79
2021/10/09 12:16:36;;;;;;;16.02;11.23;;;;;23.30;102819.00;;;;5029299;28;20275;-79
2021/10/09 12:19:05;;;;;;;15.27;10.30;;;;;23.30;102814.00;;;;5044198;28;20199;-80
2021/10/09 12:21:34;;;;;;;17.10;11.05;;;;;23.40;102818.00;;;;5039059;28;20753;-77
2021/10/09 12:24:13;;;;;;;13.82;10.60;;;;;23.30;102814.00;;;;5069539;28;20227;-80
2021/10/09 12:26:41;;;;;;;13.57;9.98;;;;;23.40;102812.00;;;;5030005;28;20223;-79
2021/10/09 12:29:12;;;;;;;14.77;10.10;;;;;23.40;102810.00;;;;5028472;28;20206;-79
2021/10/09 12:31:43;;;;;;;14.98;10.10;;;;;23.50;102810.00;;;;5032324;28;20208;-80
2021/10/09 12:34:32;;;;;;;13.25;10.32;;;;;23.40;102803.00;;;;5042412;28;20596;-80
2021/10/09 12:37:22;;;;;;;12.70;10.68;;;;;23.50;102806.00;;;;5029460;28;20258;-80
2021/10/09 12:40:14;;;;;;;13.82;11.02;;;;;23.60;102808.00;;;;5036138;28;20246;-79
2021/10/09 12:42:47;;;;;;;15.23;10.70;;;;;23.70;102810.00;;;;5038106;28;20242;-79
2021/10/09 12:45:17;;;;;;;15.43;10.68;;;;;23.80;102803.00;;;;5048638;28;20227;-79
2021/10/09 12:47:46;;;;;;;16.15;11.68;;;;;23.90;102809.00;;;;5042197;28;20198;-79
2021/10/09 12:50:13;;;;;;;15.48;10.63;;;;;24.00;102805.00;;;;5036099;28;20282;-80
2021/10/09 12:52:40;;;;;;;18.27;10.63;;;;;24.10;102807.00;;;;5043691;28;20257;-79
2021/10/09 12:55:09;;;;;;;13.65;10.93;;;;;24.20;102803.00;;;;5039602;28;20223;-79
2021/10/09 12:57:39;;;;;;;13.95;10.85;;;;;24.30;102799.00;;;;5039831;28;20211;-79
2021/10/09 13:00:07;;;;;;;14.25;10.40;;;;;24.60;102804.00;;;;5030593;28;20207;-80
2021/10/09 13:02:36;;;;;;;13.57;10.10;;;;;24.80;102792.00;;;;5027017;28;20224;-80
2021/10/09 13:05:03;;;;;;;13.35;11.05;;;;;25.10;102802.00;;;;5047481;28;20204;-80
2021/10/09 13:07:30;;;;;;;15.15;10.98;;;;;25.60;102798.00;;;;5041527;28;20534;-79
2021/10/09 13:09:57;;;;;;;12.90;10.18;;;;;26.20;102791.00;;;;5027242;28;20193;-80
2021/10/09 13:12:25;;;;;;;13.77;10.82;;;;;26.90;102790.00;;;;5042056;28;20290;-80
2021/10/09 13:14:52;;;;;;;11.43;10.18;;;;;27.50;102792.00;;;;5048746;28;20214;-80
2021/10/09 13:17:19;;;;;;;11.77;10.20;;;;;28.20;102794.00;;;;5034884;28;20195;-80
2021/10/09 13:19:48;;;;;;;12.38;9.52;;;;;28.80;102795.00;;;;5044781;28;20203;-80
2021/10/09 13:22:15;;;;;;;12.55;10.23;;;;;29.50;102799.00;;;;5029682;28;20200;-78
2021/10/09 13:24:42;;;;;;;12.57;9.50;;;;;30.00;102796.00;;;;5029270;28;20208;-78
2021/10/09 13:27:09;;;;;;;15.30;10.02;;;;;30.50;102792.00;;;;5028150;28;20196;-78
2021/10/09 13:29:37;;;;;;;13.43;10.70;;;;;31.00;102798.00;;;;5028869;28;20208;-80
2021/10/09 13:32:05;;;;;;;12.75;10.40;;;;;31.50;102791.00;;;;5045127;28;20868;-78
2021/10/09 13:34:32;;;;;;;12.13;9.35;;;;;31.90;102786.00;;;;5028054;28;20210;-78
2021/10/09 13:37:01;;;;;;;10.63;9.48;;;;;32.30;102788.00;;;;5028470;28;20212;-78
2021/10/09 13:39:28;;;;;;;12.27;9.18;;;;;32.70;102792.00;;;;5031829;28;20326;-79
2021/10/09 13:41:55;;;;;;;9.90;8.88;;;;;33.10;102790.00;;;;5048510;28;20240;-77
2021/10/09 13:44:22;;;;;;;10.93;8.93;;;;;33.40;102791.00;;;;5048560;28;20257;-77